createdAt,value
2023-04-10T00:02:00.624Z,97249.72
2023-04-10T00:04:28.513Z,97259.41
2023-04-10T00:06:55.626Z,97250.56
2023-04-10T00:09:22.223Z,97240.47
2023-04-10T00:11:48.845Z,97246.47
2023-04-10T00:14:15.374Z,97249.63
2023-04-10T00:16:42.006Z,97247.28
2023-04-10T00:19:08.803Z,97248.06
2023-04-10T00:21:35.348Z,97242.38
2023-04-10T00:24:01.950Z,97239.94
2023-04-10T00:26:28.502Z,97232.06
2023-04-10T00:28:55.290Z,97227.53
2023-04-10T00:31:21.981Z,97227.03
2023-04-10T00:33:48.662Z,97218.72
2023-04-10T00:36:16.003Z,97213.31
2023-04-10T00:38:42.633Z,97213.91
2023-04-10T00:41:09.197Z,97205.88
2023-04-10T00:43:35.893Z,97200.13
2023-04-10T00:46:02.712Z,97197.78
2023-04-10T00:48:29.694Z,97202.31
2023-04-10T00:50:56.276Z,97201.19
2023-04-10T00:53:23.185Z,97200.31
2023-04-10T00:55:50.503Z,97199.69
2023-04-10T00:58:17.136Z,97194.28
2023-04-10T01:00:43.764Z,97193.22
2023-04-10T01:03:13.283Z,97200.56
2023-04-10T01:05:51.624Z,97195.59
2023-04-10T01:08:23.044Z,97196.22
2023-04-10T01:11:02.577Z,97196.84
2023-04-10T01:14:00.350Z,97200.03
2023-04-10T01:16:31.570Z,97204.66
2023-04-10T01:19:23.567Z,97202.16
2023-04-10T01:21:52.833Z,97196.94
2023-04-10T01:25:01.029Z,97201.84
2023-04-10T01:27:33.511Z,97201.38
2023-04-10T01:30:02.741Z,97197.06
2023-04-10T01:32:30.906Z,97199.94
2023-04-10T01:35:03.633Z,97205.03
2023-04-10T01:37:32.170Z,97208.16
2023-04-10T01:40:04.299Z,97192.97
2023-04-10T01:42:34.178Z,97204.28
2023-04-10T01:45:02.012Z,97204.47
2023-04-10T01:47:29.114Z,97198.03
2023-04-10T01:49:57.339Z,97202.22
2023-04-10T01:52:25.001Z,97204.16
2023-04-10T01:54:53.387Z,97188.53
2023-04-10T01:57:20.468Z,97205.38
2023-04-10T01:59:47.355Z,97202.84
2023-04-10T02:02:14.053Z,97207.91
2023-04-10T02:04:40.842Z,97217.59
2023-04-10T02:07:12.279Z,97202.47
2023-04-10T02:09:57.687Z,97215.00
2023-04-10T02:12:36.944Z,97198.09
2023-04-10T02:15:06.496Z,97191.00
2023-04-10T02:17:34.854Z,97199.03
2023-04-10T02:20:04.197Z,97189.81
2023-04-10T02:22:31.086Z,97194.47
2023-04-10T02:24:58.788Z,97190.88
2023-04-10T02:27:29.585Z,97182.59
2023-04-10T02:29:56.887Z,97190.81
2023-04-10T02:32:24.268Z,97187.88
2023-04-10T02:34:50.786Z,97186.38
2023-04-10T02:37:17.500Z,97156.44
2023-04-10T02:39:44.088Z,97180.53
2023-04-10T02:42:11.171Z,97181.88
2023-04-10T02:44:39.465Z,97178.91
2023-04-10T02:47:07.266Z,97182.31
2023-04-10T02:49:35.069Z,97169.13
2023-04-10T02:52:02.284Z,97182.75
2023-04-10T02:54:28.955Z,97186.47
2023-04-10T02:56:57.711Z,97184.84
2023-04-10T02:59:24.387Z,97187.84
2023-04-10T03:01:52.409Z,97186.19
2023-04-10T03:04:19.629Z,97182.31
2023-04-10T03:06:46.430Z,97187.75
2023-04-10T03:09:13.021Z,97184.47
2023-04-10T03:11:39.616Z,97185.91
2023-04-10T03:14:06.477Z,97188.31
2023-04-10T03:16:33.136Z,97187.63
2023-04-10T03:18:59.948Z,97180.81
2023-04-10T03:21:27.447Z,97144.25
2023-04-10T03:23:54.251Z,97181.88
2023-04-10T03:26:21.263Z,97182.59
2023-04-10T03:28:47.894Z,97180.22
2023-04-10T03:31:14.520Z,97192.03
2023-04-10T03:33:41.350Z,97184.47
2023-04-10T03:36:08.714Z,97191.34
2023-04-10T03:38:35.829Z,97188.81
2023-04-10T03:41:02.288Z,97185.78
2023-04-10T03:43:31.344Z,97180.69
2023-04-10T03:45:58.217Z,97185.19
2023-04-10T03:48:28.262Z,97193.41
2023-04-10T03:50:55.530Z,97186.78
2023-04-10T03:53:22.150Z,97187.06
2023-04-10T03:55:48.675Z,97188.25
2023-04-10T03:58:15.424Z,97191.63
2023-04-10T04:00:42.046Z,97190.28
2023-04-10T04:03:08.882Z,97195.72
2023-04-10T04:05:35.746Z,97192.75
2023-04-10T04:08:03.938Z,97192.63
2023-04-10T04:10:30.564Z,97197.84
2023-04-10T04:12:57.142Z,97194.72
2023-04-10T04:15:23.995Z,97203.06
2023-04-10T04:17:51.234Z,97201.47
2023-04-10T04:20:17.906Z,97191.44
2023-04-10T04:22:44.507Z,97198.63
2023-04-10T04:25:11.783Z,97193.16
2023-04-10T04:27:38.610Z,97195.84
2023-04-10T04:30:06.465Z,97188.91
2023-04-10T04:32:33.265Z,97193.06
2023-04-10T04:34:59.932Z,97200.56
2023-04-10T04:37:26.567Z,97193.47
2023-04-10T04:39:53.115Z,97197.13
2023-04-10T04:42:19.716Z,97204.44
2023-04-10T04:44:46.348Z,97205.72
2023-04-10T04:47:12.918Z,97211.34
2023-04-10T04:49:39.499Z,97210.28
2023-04-10T04:52:06.116Z,97205.50
2023-04-10T04:54:32.688Z,97210.06
2023-04-10T04:56:59.275Z,97220.22
2023-04-10T04:59:25.872Z,97220.22
2023-04-10T05:01:52.696Z,97222.56
2023-04-10T05:04:20.709Z,97219.72
2023-04-10T05:06:47.420Z,97221.66
2023-04-10T05:09:13.981Z,97225.78
2023-04-10T05:11:41.073Z,97210.63
2023-04-10T05:14:07.715Z,97223.19
2023-04-10T05:16:34.281Z,97217.28
2023-04-10T05:19:00.854Z,97226.22
2023-04-10T05:21:27.622Z,97228.91
2023-04-10T05:23:54.263Z,97222.00
2023-04-10T05:26:21.003Z,97228.91
2023-04-10T05:28:47.660Z,97228.63
2023-04-10T05:31:14.277Z,97231.22
2023-04-10T05:33:40.989Z,97224.53
2023-04-10T05:36:08.033Z,97223.78
2023-04-10T05:38:34.623Z,97223.19
2023-04-10T05:41:01.178Z,97227.63
2023-04-10T05:43:27.807Z,97231.13
2023-04-10T05:45:54.460Z,97234.09
2023-04-10T05:48:21.183Z,97225.16
2023-04-10T05:50:47.739Z,97230.50
2023-04-10T05:53:14.932Z,97221.97
2023-04-10T05:55:41.528Z,97232.59
2023-04-10T05:58:08.106Z,97227.31
2023-04-10T06:00:34.689Z,97226.41
2023-04-10T06:03:01.712Z,97229.84
2023-04-10T06:05:28.442Z,97228.72
2023-04-10T06:07:57.575Z,97223.28
2023-04-10T06:10:24.852Z,97220.97
2023-04-10T06:12:51.405Z,97212.66
2023-04-10T06:15:18.111Z,97209.47
2023-04-10T06:17:44.794Z,97210.81
2023-04-10T06:20:11.734Z,97202.78
2023-04-10T06:22:38.351Z,97203.66
2023-04-10T06:25:05.541Z,97208.31
2023-04-10T06:27:33.892Z,97207.84
2023-04-10T06:30:00.481Z,97207.06
2023-04-10T06:32:27.096Z,97203.00
2023-04-10T06:34:53.632Z,97206.66
2023-04-10T06:37:20.216Z,97203.47
2023-04-10T06:39:46.809Z,97204.84
2023-04-10T06:42:13.412Z,97207.56
2023-04-10T06:44:39.995Z,97207.00
2023-04-10T06:47:06.937Z,97209.16
2023-04-10T06:49:33.689Z,97210.66
2023-04-10T06:52:00.287Z,97208.88
2023-04-10T06:54:26.874Z,97206.78
2023-04-10T06:56:58.714Z,97205.66
2023-04-10T06:59:25.671Z,97198.06
2023-04-10T07:01:52.262Z,97192.09
2023-04-10T07:04:19.016Z,97182.19
2023-04-10T07:06:45.628Z,97185.97
2023-04-10T07:09:12.279Z,97181.16
2023-04-10T07:11:38.893Z,97174.41
2023-04-10T07:14:05.450Z,97157.66
2023-04-10T07:16:32.766Z,97154.22
2023-04-10T07:18:59.286Z,97149.91
2023-04-10T07:21:27.208Z,97160.53
2023-04-10T07:23:53.891Z,97146.59
2023-04-10T07:26:20.740Z,97135.25
2023-04-10T07:28:47.332Z,97129.34
2023-04-10T07:31:14.217Z,97126.47
2023-04-10T07:33:40.952Z,97133.22
2023-04-10T07:36:08.246Z,97130.97
2023-04-10T07:38:34.883Z,97132.13
2023-04-10T07:41:01.567Z,97140.25
2023-04-10T07:43:28.096Z,97137.97
2023-04-10T07:45:56.066Z,97140.13
2023-04-10T07:48:22.908Z,97135.13
2023-04-10T07:50:49.653Z,97121.50
2023-04-10T07:53:16.286Z,97134.41
2023-04-10T07:55:44.645Z,97123.47
2023-04-10T07:58:11.305Z,97127.28
2023-04-10T08:00:37.911Z,97127.56
2023-04-10T08:03:05.977Z,97127.66
2023-04-10T08:05:33.201Z,97132.91
2023-04-10T08:07:59.998Z,97120.84
2023-04-10T08:10:26.813Z,97136.00
2023-04-10T08:12:53.642Z,97117.91
2023-04-10T08:15:20.591Z,97126.84
2023-04-10T08:17:47.489Z,97123.22
2023-04-10T08:20:14.380Z,97129.44
2023-04-10T08:22:41.240Z,97127.50
2023-04-10T08:25:08.312Z,97117.38
2023-04-10T08:27:35.101Z,97113.50
2023-04-10T08:30:01.958Z,97106.41
2023-04-10T08:32:29.354Z,97118.50
2023-04-10T08:34:56.161Z,97115.38
2023-04-10T08:37:22.792Z,97117.44
2023-04-10T08:39:49.349Z,97109.16
2023-04-10T08:42:16.100Z,97118.50
2023-04-10T08:44:42.634Z,97117.53
2023-04-10T08:47:10.377Z,97113.44
2023-04-10T08:49:39.694Z,97118.09
2023-04-10T08:52:09.677Z,97114.16
2023-04-10T08:54:38.977Z,97116.88
2023-04-10T08:57:09.763Z,97124.84
2023-04-10T08:59:37.384Z,97113.63
2023-04-10T09:02:04.022Z,97111.56
2023-04-10T09:04:31.874Z,97111.66
2023-04-10T09:06:58.455Z,97100.72
2023-04-10T09:09:24.978Z,97100.84
2023-04-10T09:12:00.478Z,97090.38
2023-04-10T09:14:32.145Z,97089.91
2023-04-10T09:17:24.192Z,97080.19
2023-04-10T09:19:55.928Z,97089.84
2023-04-10T09:22:31.074Z,97063.69
2023-04-10T09:24:59.491Z,97083.06
2023-04-10T09:27:35.178Z,97089.00
2023-04-10T09:30:03.257Z,97081.66
2023-04-10T09:32:36.062Z,97078.31
2023-04-10T09:35:02.898Z,97062.00
2023-04-10T09:37:33.115Z,97052.88
2023-04-10T09:39:59.743Z,97066.69
2023-04-10T09:42:37.327Z,97065.16
2023-04-10T09:45:05.217Z,97062.63
2023-04-10T09:47:33.263Z,97066.09
2023-04-10T09:50:01.188Z,97076.25
2023-04-10T09:52:29.883Z,97055.97
2023-04-10T09:54:58.232Z,97061.91
2023-04-10T09:57:27.697Z,97064.28
2023-04-10T09:59:59.132Z,97059.31
2023-04-10T10:02:28.854Z,97057.84
2023-04-10T10:04:57.269Z,97049.13
2023-04-10T10:07:24.388Z,97060.00
2023-04-10T10:09:52.874Z,97050.22
2023-04-10T10:12:24.344Z,97056.19
2023-04-10T10:15:01.235Z,97083.63
2023-04-10T10:17:38.393Z,97059.72
2023-04-10T10:20:07.955Z,97057.75
2023-04-10T10:22:35.634Z,97053.94
2023-04-10T10:25:03.268Z,97059.13
2023-04-10T10:27:37.718Z,97049.72
2023-04-10T10:30:20.289Z,97054.97
2023-04-10T10:32:52.675Z,97055.59
2023-04-10T10:35:19.981Z,97049.19
2023-04-10T10:37:47.788Z,97044.34
2023-04-10T10:40:31.066Z,97037.88
2023-04-10T10:42:57.633Z,97038.44
2023-04-10T10:45:31.358Z,97023.47
2023-04-10T10:47:58.030Z,97018.03
2023-04-10T10:50:24.990Z,97003.69
2023-04-10T10:52:54.052Z,97008.34
2023-04-10T10:55:27.501Z,97012.41
2023-04-10T10:57:56.227Z,97008.97
2023-04-10T11:00:27.166Z,97011.19
2023-04-10T11:03:08.997Z,97018.97
2023-04-10T11:05:55.601Z,97001.84
2023-04-10T11:08:44.501Z,97001.13
2023-04-10T11:11:13.005Z,97004.50
2023-04-10T11:13:41.815Z,96994.31
2023-04-10T11:16:12.896Z,96980.88
2023-04-10T11:18:45.680Z,97002.66
2023-04-10T11:21:16.760Z,97002.56
2023-04-10T11:23:52.840Z,97002.13
2023-04-10T11:26:43.624Z,96997.63
2023-04-10T11:29:14.181Z,96988.25
2023-04-10T11:31:40.857Z,96986.69
2023-04-10T11:34:08.385Z,96972.59
2023-04-10T11:36:39.051Z,96970.13
2023-04-10T11:39:08.921Z,96974.00
2023-04-10T11:41:40.140Z,96973.81
2023-04-10T11:44:08.823Z,96965.78
2023-04-10T11:46:40.433Z,96963.81
2023-04-10T11:49:09.859Z,96953.06
2023-04-10T11:51:40.815Z,96960.97
2023-04-10T11:54:12.272Z,96962.81
2023-04-10T11:56:41.142Z,96943.94
2023-04-10T11:59:11.122Z,96940.84
2023-04-10T12:01:39.850Z,96936.31
2023-04-10T12:04:21.461Z,96927.97
2023-04-10T12:06:53.399Z,96934.28
2023-04-10T12:09:21.394Z,96925.03
2023-04-10T12:11:59.823Z,96932.91
2023-04-10T12:14:44.631Z,96943.84
2023-04-10T12:17:12.970Z,96925.75
2023-04-10T12:19:40.327Z,96926.44
2023-04-10T12:22:07.798Z,96940.94
2023-04-10T12:24:42.056Z,96933.25
2023-04-10T12:27:19.130Z,96927.78
2023-04-10T12:29:47.035Z,96926.88
2023-04-10T12:32:13.854Z,96913.25
2023-04-10T12:34:40.949Z,96916.13
2023-04-10T12:37:09.776Z,96907.53
2023-04-10T12:39:36.561Z,96905.72
2023-04-10T12:42:13.401Z,96900.06
2023-04-10T12:44:59.823Z,96902.75
2023-04-10T12:47:28.345Z,96891.47
2023-04-10T12:50:10.847Z,96894.63
2023-04-10T12:52:40.440Z,96889.84
2023-04-10T12:55:13.317Z,96880.09
2023-04-10T12:57:41.468Z,96883.78
2023-04-10T13:00:11.083Z,96880.44
2023-04-10T13:02:38.600Z,96886.00
2023-04-10T13:05:06.765Z,96872.09
2023-04-10T13:07:33.541Z,96873.13
2023-04-10T13:10:00.463Z,96873.31
2023-04-10T13:12:27.218Z,96892.53
2023-04-10T13:14:54.638Z,96876.66
2023-04-10T13:17:21.808Z,96861.81
2023-04-10T13:19:48.786Z,96872.22
2023-04-10T13:22:15.518Z,96867.34
2023-04-10T13:24:43.597Z,96874.19
2023-04-10T13:27:11.006Z,96861.56
2023-04-10T13:29:40.257Z,96860.97
2023-04-10T13:32:07.530Z,96863.28
2023-04-10T13:34:34.482Z,96860.47
2023-04-10T13:37:01.672Z,96853.69
2023-04-10T13:39:29.814Z,96868.81
2023-04-10T13:41:56.838Z,96861.47
2023-04-10T13:44:23.675Z,96863.25
2023-04-10T13:46:52.025Z,96860.50
2023-04-10T13:49:20.379Z,96862.69
2023-04-10T13:51:47.462Z,96863.28
2023-04-10T13:54:14.392Z,96884.22
2023-04-10T13:56:41.398Z,96866.88
2023-04-10T13:59:08.015Z,96859.19
2023-04-10T14:01:34.681Z,96870.00
2023-04-10T14:04:01.293Z,96866.34
2023-04-10T14:06:28.286Z,96857.59
2023-04-10T14:08:55.042Z,96860.75
2023-04-10T14:11:22.073Z,96842.66
2023-04-10T14:13:49.100Z,96838.00
2023-04-10T14:16:15.615Z,96862.81
2023-04-10T14:18:42.216Z,96851.56
2023-04-10T14:21:08.851Z,96840.56
2023-04-10T14:23:35.551Z,96845.06
2023-04-10T14:26:02.269Z,96846.13
2023-04-10T14:28:29.289Z,96844.66
2023-04-10T14:30:55.972Z,96845.22
2023-04-10T14:33:22.614Z,96844.09
2023-04-10T14:35:49.272Z,96826.91
2023-04-10T14:38:16.210Z,96844.34
2023-04-10T14:40:43.680Z,96850.00
2023-04-10T14:43:10.082Z,96850.34
2023-04-10T14:45:36.712Z,96857.63
2023-04-10T14:48:03.667Z,96863.78
2023-04-10T14:50:33.550Z,96859.91
2023-04-10T14:53:00.697Z,96878.41
2023-04-10T14:55:29.436Z,96863.16
2023-04-10T14:57:58.222Z,96873.06
2023-04-10T15:00:25.536Z,96861.63
2023-04-10T15:02:52.321Z,96872.56
2023-04-10T15:05:19.280Z,96870.09
2023-04-10T15:07:45.929Z,96870.84
2023-04-10T15:10:12.594Z,96874.09
2023-04-10T15:12:39.367Z,96880.38
2023-04-10T15:15:07.020Z,96874.84
2023-04-10T15:17:33.973Z,96873.81
2023-04-10T15:20:00.808Z,96887.59
2023-04-10T15:22:29.247Z,96894.81
2023-04-10T15:24:55.859Z,96881.00
2023-04-10T15:27:22.449Z,96876.72
2023-04-10T15:29:49.102Z,96878.63
2023-04-10T15:32:15.791Z,96886.41
2023-04-10T15:34:42.412Z,96883.09
2023-04-10T15:37:08.958Z,96889.13
2023-04-10T15:39:37.133Z,96895.34
2023-04-10T15:42:06.041Z,96887.34
2023-04-10T15:44:32.899Z,96899.31
2023-04-10T15:46:59.479Z,96906.97
2023-04-10T15:49:36.079Z,96907.16
2023-04-10T15:52:05.119Z,96905.34
2023-04-10T15:54:33.872Z,96910.44
2023-04-10T15:57:01.749Z,96914.84
2023-04-10T15:59:28.401Z,96917.06
2023-04-10T16:01:55.067Z,96915.66
2023-04-10T16:04:21.870Z,96918.06
2023-04-10T16:06:48.557Z,96910.97
2023-04-10T16:09:25.494Z,96922.84
2023-04-10T16:11:53.914Z,96920.03
2023-04-10T16:14:20.803Z,96921.16
2023-04-10T16:16:47.395Z,96913.78
2023-04-10T16:19:14.065Z,96906.63
2023-04-10T16:21:40.714Z,96899.59
2023-04-10T16:24:07.518Z,96925.66
2023-04-10T16:26:34.336Z,96921.81
2023-04-10T16:29:00.994Z,96923.22
2023-04-10T16:31:27.639Z,96926.56
2023-04-10T16:33:54.252Z,96923.91
2023-04-10T16:36:20.921Z,96935.03
2023-04-10T16:38:49.725Z,96933.00
2023-04-10T16:41:20.866Z,96927.38
2023-04-10T16:43:47.737Z,96924.28
2023-04-10T16:46:14.478Z,96925.91
2023-04-10T16:48:41.205Z,96942.47
2023-04-10T16:51:15.903Z,96933.88
2023-04-10T16:53:42.616Z,96948.72
2023-04-10T16:56:09.312Z,96939.38
2023-04-10T16:58:37.263Z,96928.72
2023-04-10T17:01:26.334Z,96921.25
2023-04-10T17:03:53.825Z,96946.19
2023-04-10T17:06:20.623Z,96945.59
2023-04-10T17:08:47.571Z,96946.19
2023-04-10T17:11:14.172Z,96951.22
2023-04-10T17:13:41.517Z,96940.75
2023-04-10T17:16:09.332Z,96939.03
2023-04-10T17:18:35.933Z,96946.19
2023-04-10T17:21:02.514Z,96940.91
2023-04-10T17:23:29.683Z,96954.97
2023-04-10T17:25:56.382Z,96954.66
2023-04-10T17:28:23.114Z,96957.16
2023-04-10T17:30:49.654Z,96957.44
2023-04-10T17:33:16.278Z,96975.72
2023-04-10T17:35:43.106Z,96977.13
2023-04-10T17:38:09.617Z,96978.97
2023-04-10T17:40:37.089Z,96995.22
2023-04-10T17:43:03.936Z,97000.66
2023-04-10T17:45:30.635Z,97002.25
2023-04-10T17:47:57.325Z,97006.91
2023-04-10T17:50:24.035Z,97025.50
2023-04-10T17:52:50.542Z,97028.28
2023-04-10T17:55:21.232Z,97043.72
2023-04-10T17:57:48.921Z,97045.38
2023-04-10T18:00:16.944Z,97055.97
2023-04-10T18:02:45.544Z,97055.03
2023-04-10T18:05:12.200Z,97059.22
2023-04-10T18:07:39.227Z,97054.34
2023-04-10T18:10:09.798Z,97061.19
2023-04-10T18:12:37.715Z,97056.44
2023-04-10T18:15:04.891Z,97045.22
2023-04-10T18:17:31.602Z,97059.09
2023-04-10T18:19:58.146Z,97061.41
2023-04-10T18:22:24.961Z,97061.19
2023-04-10T18:24:51.624Z,97056.38
2023-04-10T18:27:18.164Z,97046.84
2023-04-10T18:29:45.683Z,97050.44
2023-04-10T18:32:12.642Z,97054.84
2023-04-10T18:34:39.437Z,97069.03
2023-04-10T18:37:07.492Z,97068.59
2023-04-10T18:39:38.220Z,97060.78
2023-04-10T18:42:07.514Z,97058.28
2023-04-10T18:44:34.883Z,97056.44
2023-04-10T18:47:04.879Z,97051.81
2023-04-10T18:49:32.102Z,97048.50
2023-04-10T18:51:58.924Z,97041.19
2023-04-10T18:54:27.498Z,97036.22
2023-04-10T18:56:54.398Z,97045.41
2023-04-10T18:59:20.946Z,97043.38
2023-04-10T19:01:47.572Z,97044.41
2023-04-10T19:04:14.726Z,97035.06
2023-04-10T19:06:43.656Z,97052.22
2023-04-10T19:09:10.306Z,97060.94
2023-04-10T19:11:37.064Z,97047.25
2023-04-10T19:14:03.723Z,97050.38
2023-04-10T19:16:30.534Z,97057.81
2023-04-10T19:18:57.448Z,97060.16
2023-04-10T19:21:24.281Z,97057.75
2023-04-10T19:23:50.916Z,97068.66
2023-04-10T19:26:19.951Z,97068.50
2023-04-10T19:28:46.832Z,97068.66
2023-04-10T19:31:13.603Z,97078.97
2023-04-10T19:33:40.295Z,97078.59
2023-04-10T19:36:08.510Z,97078.97
2023-04-10T19:38:35.377Z,97083.13
2023-04-10T19:41:01.903Z,97083.56
2023-04-10T19:43:28.471Z,97084.56
2023-04-10T19:45:56.246Z,97085.22
2023-04-10T19:48:23.487Z,97082.38
2023-04-10T19:50:50.092Z,97086.53
2023-04-10T19:53:16.696Z,97103.81
2023-04-10T19:55:44.431Z,97095.72
2023-04-10T19:58:24.959Z,97110.13
2023-04-10T20:01:06.816Z,97106.53
2023-04-10T20:03:33.508Z,97104.81
2023-04-10T20:06:00.767Z,97100.00
2023-04-10T20:08:27.578Z,97094.72
2023-04-10T20:10:55.161Z,97109.38
2023-04-10T20:13:23.207Z,97112.75
2023-04-10T20:15:50.109Z,97096.31
2023-04-10T20:18:17.337Z,97089.97
2023-04-10T20:20:44.825Z,97078.09
2023-04-10T20:23:11.687Z,97079.84
2023-04-10T20:25:38.929Z,97075.59
2023-04-10T20:28:05.490Z,97068.94
2023-04-10T20:30:32.034Z,97059.31
2023-04-10T20:32:58.679Z,97066.59
2023-04-10T20:35:26.058Z,97070.00
2023-04-10T20:37:52.611Z,97059.84
2023-04-10T20:40:19.436Z,97061.56
2023-04-10T20:42:46.291Z,97055.31
2023-04-10T20:45:13.074Z,97030.00
2023-04-10T20:47:39.984Z,97050.03
2023-04-10T20:50:07.642Z,97060.34
2023-04-10T20:52:34.227Z,97046.81
2023-04-10T20:55:00.930Z,97059.22
2023-04-10T20:57:27.625Z,97056.41
2023-04-10T20:59:54.197Z,97047.34
2023-04-10T21:02:21.999Z,97045.22
2023-04-10T21:04:50.366Z,97040.53
2023-04-10T21:07:16.930Z,97042.09
2023-04-10T21:09:43.654Z,97041.31
2023-04-10T21:12:10.219Z,97030.78
2023-04-10T21:14:36.801Z,97045.16
2023-04-10T21:17:03.430Z,97036.66
2023-04-10T21:19:29.981Z,97040.00
2023-04-10T21:21:57.282Z,97037.19
2023-04-10T21:24:23.967Z,97030.16
2023-04-10T21:26:50.756Z,97036.00
2023-04-10T21:29:17.304Z,97043.75
2023-04-10T21:31:43.922Z,97042.97
2023-04-10T21:34:10.607Z,97034.75
2023-04-10T21:36:38.750Z,97034.00
2023-04-10T21:39:09.265Z,97027.53
2023-04-10T21:41:37.075Z,97042.50
2023-04-10T21:44:04.178Z,97039.03
2023-04-10T21:46:31.093Z,97045.66
2023-04-10T21:48:57.845Z,97034.47
2023-04-10T21:51:26.736Z,97041.50
2023-04-10T21:53:53.453Z,97059.44
2023-04-10T21:56:20.694Z,97058.50
2023-04-10T21:58:47.257Z,97052.47
2023-04-10T22:01:13.921Z,97046.97
2023-04-10T22:03:41.573Z,97061.56
2023-04-10T22:06:09.080Z,97050.13
2023-04-10T22:08:38.274Z,97056.84
2023-04-10T22:11:06.062Z,97062.69
2023-04-10T22:13:32.921Z,97033.50
2023-04-10T22:16:01.946Z,97060.91
2023-04-10T22:18:28.908Z,97057.53
2023-04-10T22:20:55.509Z,97048.91
2023-04-10T22:23:22.250Z,97038.25
2023-04-10T22:25:48.820Z,97046.22
2023-04-10T22:28:15.775Z,97050.69
2023-04-10T22:30:42.426Z,97047.13
2023-04-10T22:33:11.891Z,97055.97
2023-04-10T22:35:38.529Z,97048.28
2023-04-10T22:38:05.278Z,97050.63
2023-04-10T22:40:31.851Z,97033.97
2023-04-10T22:42:58.448Z,97039.78
2023-04-10T22:45:25.008Z,97041.03
2023-04-10T22:47:51.569Z,97030.72
2023-04-10T22:50:18.399Z,97038.09
2023-04-10T22:52:44.989Z,97036.53
2023-04-10T22:55:11.707Z,97045.25
2023-04-10T22:57:38.424Z,97041.13
2023-04-10T23:00:05.503Z,97026.91
2023-04-10T23:02:32.128Z,97018.41
2023-04-10T23:04:58.738Z,97037.97
2023-04-10T23:07:27.808Z,97033.06
2023-04-10T23:09:54.440Z,97035.78
2023-04-10T23:12:21.009Z,97033.41
2023-04-10T23:14:47.595Z,97025.34
2023-04-10T23:17:14.148Z,97021.19
2023-04-10T23:19:40.808Z,97018.06
2023-04-10T23:22:07.328Z,97011.09
2023-04-10T23:24:33.924Z,97013.78
2023-04-10T23:27:00.574Z,97007.66
2023-04-10T23:29:27.125Z,97012.78
2023-04-10T23:31:53.649Z,97000.69
2023-04-10T23:34:21.170Z,97002.06
2023-04-10T23:36:47.701Z,96999.03
2023-04-10T23:39:14.380Z,96994.97
2023-04-10T23:41:41.061Z,96988.28
2023-04-10T23:44:07.653Z,96992.88
2023-04-10T23:46:34.291Z,96986.28
2023-04-10T23:49:00.897Z,96992.22
2023-04-10T23:51:28.053Z,96974.97
2023-04-10T23:53:54.590Z,96991.06
2023-04-10T23:56:21.649Z,96990.75
2023-04-10T23:58:48.172Z,96982.69
